Аэропорт: Магнитогорск. Магнитогорск

ICAO: USCM

METAR:
2019/01/21 23:00
USCM 212300Z 16006MPS 9999 SCT025 M13/M16 Q1015 R18/090060 NOSIG RMK QFE723
METAR:
Информация по данной станции не доступна